Lakeland, MI (48143)

1:09 AM EDT on April 28, 2017 (GMT -0400)
MD6421 | | Change Station

Elev 885 ft 42.45 °N, 83.89 °W | Updated 2 hours ago

Overcast
Overcast
50.0 °F
Feels Like 50.0 °F
N
2.0
Wind Variable Wind from WSW
Gusts 8.0 mph

Today
High -- | Low -- °F
--% Chance of Precip.
Yesterday
High -- | Low -- °F
Precip. -- in
Pressure 29.82 in
Visibility 10.0 miles
Clouds Overcast 3300 ft
Dew Point 42 °F
Humidity 73%
Rainfall 0.04 in
Snow Depth Not available.
6:34 AM 8:32 PM
Waxing Crescent, 4% visible
METAR KOZW 280454Z AUTO 24010G14KT 10SM OVC033 09/03 A2982 RMK AO2 T00920025
Pressure 29.82 in
Visibility 10.0 miles
Clouds Overcast 3300 ft
Dew Point 42 °F
Humidity 73%
Rainfall 0.04 in
Snow Depth Not available.
6:34 AM 8:32 PM
Waxing Crescent, 4% visible
METAR KOZW 280454Z AUTO 24010G14KT 10SM OVC033 09/03 A2982 RMK AO2 T00920025

Get Severe Weather Alerts

Thanks for signing up!

Be on the lookout for a verification email in your inbox.

You'll start receiving the daily forecast at 8 AM.

×

10-Day Weather Forecast

Almanac

Astronomy

Apr. 28, 2017 Rise Set
Actual Time
Civil Twilight
Nautical Twilight
Astronomical Twilight
Moon
Length of Visible Light
Length of Day
Tomorrow will be .
, % of the Moon is Illuminated

Today's Extremes

State Highs State Lows

Community

WunderPhotos

WunderBlog® & News

Nearby

Air Quality

  Air Quality AQ Index Pollutant
Not available.

Snow Depth

Station Depth Elevation

Earthquake Activity

City Distance Mag. Time & Date
Minimum magnitude displayed is 2.5.

Coastal Water Temperatures

Place Temperature

Stations

Nearby Weather Stations

Station Location Temp. Windchill Dew Point Humidity Wind Precip. Elev Updated Type
                   

Watches & Warnings

There are currently no watches in effect.